createdAt,value
2019-05-29T00:01:23.195Z,15.68
2019-05-29T00:03:51.677Z,15.73
2019-05-29T00:06:20.189Z,15.72
2019-05-29T00:08:48.685Z,15.64
2019-05-29T00:11:18.377Z,15.68
2019-05-29T00:13:46.912Z,15.63
2019-05-29T00:16:15.538Z,15.62
2019-05-29T00:18:44.073Z,15.61
2019-05-29T00:21:13.076Z,15.59
2019-05-29T00:23:41.617Z,15.64
2019-05-29T00:26:10.422Z,15.60
2019-05-29T00:28:38.974Z,15.62
2019-05-29T00:31:07.752Z,15.56
2019-05-29T00:33:36.253Z,15.46
2019-05-29T00:36:04.703Z,15.52
2019-05-29T00:38:33.264Z,15.57
2019-05-29T00:41:01.744Z,15.46
2019-05-29T00:43:30.161Z,15.52
2019-05-29T00:45:58.737Z,15.57
2019-05-29T00:48:27.157Z,15.49
2019-05-29T00:50:55.795Z,15.53
2019-05-29T00:53:24.262Z,15.49
2019-05-29T00:55:52.685Z,15.52
2019-05-29T00:58:21.209Z,15.53
2019-05-29T01:00:49.798Z,15.44
2019-05-29T01:03:18.303Z,15.51
2019-05-29T01:05:46.708Z,15.51
2019-05-29T01:08:16.362Z,15.50
2019-05-29T01:10:44.920Z,15.44
2019-05-29T01:13:13.410Z,15.37
2019-05-29T01:15:41.959Z,15.46
2019-05-29T01:18:11.633Z,15.48
2019-05-29T01:20:40.369Z,15.48
2019-05-29T01:23:08.999Z,15.54
2019-05-29T01:25:37.519Z,15.47
2019-05-29T01:28:06.021Z,15.51
2019-05-29T01:30:34.587Z,15.47
2019-05-29T01:33:03.011Z,15.50
2019-05-29T01:35:31.447Z,15.47
2019-05-29T01:37:59.947Z,15.53
2019-05-29T01:40:29.706Z,15.51
2019-05-29T01:43:00.441Z,15.43
2019-05-29T01:45:28.779Z,15.44
2019-05-29T01:47:57.348Z,15.46
2019-05-29T01:50:25.837Z,15.42
2019-05-29T01:52:54.375Z,15.38
2019-05-29T01:55:23.823Z,15.42
2019-05-29T01:57:52.451Z,15.41
2019-05-29T02:00:22.531Z,15.41
2019-05-29T02:02:51.031Z,15.39
2019-05-29T02:05:20.031Z,15.34
2019-05-29T02:07:48.723Z,15.38
2019-05-29T02:10:18.236Z,15.32
2019-05-29T02:12:46.780Z,15.40
2019-05-29T02:15:29.160Z,15.37
2019-05-29T02:17:46.279Z,15.36
2019-05-29T02:20:15.069Z,15.39
2019-05-29T02:22:43.500Z,15.36
2019-05-29T02:25:15.827Z,15.38
2019-05-29T02:27:42.715Z,15.34
2019-05-29T02:30:11.766Z,15.38
2019-05-29T02:32:40.294Z,15.24
2019-05-29T02:35:09.028Z,15.35
2019-05-29T02:37:37.462Z,15.37
2019-05-29T02:40:08.450Z,15.38
2019-05-29T02:42:37.049Z,15.35
2019-05-29T02:45:07.309Z,15.36
2019-05-29T02:47:35.797Z,15.28
2019-05-29T02:50:08.674Z,15.23
2019-05-29T02:52:37.232Z,15.18
2019-05-29T02:55:08.065Z,15.24
2019-05-29T02:57:36.657Z,15.30
2019-05-29T03:00:08.439Z,15.27
2019-05-29T03:02:36.927Z,15.26
2019-05-29T03:05:06.802Z,15.25
2019-05-29T03:07:35.698Z,15.26
2019-05-29T03:10:07.365Z,15.22
2019-05-29T03:12:36.169Z,15.20
2019-05-29T03:15:06.261Z,15.18
2019-05-29T03:17:34.805Z,15.18
2019-05-29T03:20:04.106Z,15.15
2019-05-29T03:22:33.731Z,15.19
2019-05-29T03:25:02.900Z,15.05
2019-05-29T03:27:31.957Z,15.08
2019-05-29T03:30:00.443Z,15.11
2019-05-29T03:32:32.454Z,15.16
2019-05-29T03:34:59.238Z,15.13
2019-05-29T03:37:28.216Z,15.05
2019-05-29T03:39:56.791Z,15.07
2019-05-29T03:42:26.443Z,15.04
2019-05-29T03:44:54.926Z,15.09
2019-05-29T03:47:23.587Z,15.07
2019-05-29T03:49:52.017Z,15.06
2019-05-29T03:52:20.653Z,14.99
2019-05-29T03:54:49.156Z,15.05
2019-05-29T03:57:17.776Z,15.06
2019-05-29T03:59:46.209Z,15.10
2019-05-29T04:02:17.686Z,15.08
2019-05-29T04:04:53.858Z,15.07
2019-05-29T04:07:20.032Z,15.07
2019-05-29T04:09:48.502Z,15.02
2019-05-29T04:12:19.144Z,15.08
2019-05-29T04:14:48.223Z,15.09
2019-05-29T04:17:19.527Z,15.02
2019-05-29T04:19:48.353Z,14.95
2019-05-29T04:22:19.830Z,15.06
2019-05-29T04:24:50.545Z,14.99
2019-05-29T04:27:22.157Z,15.08
2019-05-29T04:29:50.833Z,14.98
2019-05-29T04:32:19.238Z,15.01
2019-05-29T04:34:47.700Z,15.06
2019-05-29T04:37:16.220Z,15.05
2019-05-29T04:39:44.901Z,15.04
2019-05-29T04:42:13.342Z,15.06
2019-05-29T04:44:41.967Z,15.05
2019-05-29T04:47:12.842Z,15.05
2019-05-29T04:49:41.380Z,15.03
2019-05-29T04:52:09.841Z,15.08
2019-05-29T04:54:39.997Z,15.03
2019-05-29T04:57:08.799Z,15.06
2019-05-29T04:59:39.263Z,15.06
2019-05-29T05:02:07.805Z,15.14
2019-05-29T05:04:37.299Z,14.98
2019-05-29T05:07:05.859Z,15.15
2019-05-29T05:09:35.232Z,15.12
2019-05-29T05:12:03.790Z,15.14
2019-05-29T05:14:33.532Z,15.16
2019-05-29T05:17:02.058Z,15.21
2019-05-29T05:19:31.705Z,15.16
2019-05-29T05:22:00.206Z,15.20
2019-05-29T05:24:30.079Z,15.17
2019-05-29T05:26:58.856Z,15.21
2019-05-29T05:29:27.354Z,15.20
2019-05-29T05:31:55.773Z,15.30
2019-05-29T05:34:24.235Z,15.24
2019-05-29T05:36:52.711Z,15.35
2019-05-29T05:39:21.131Z,15.33
2019-05-29T05:41:49.736Z,14.95
2019-05-29T05:44:18.158Z,15.15
2019-05-29T05:46:46.564Z,15.04
2019-05-29T05:49:14.988Z,15.29
2019-05-29T05:51:44.793Z,15.34
2019-05-29T05:54:13.315Z,15.27
2019-05-29T05:56:41.857Z,15.34
2019-05-29T05:59:10.367Z,15.32
2019-05-29T06:01:40.054Z,15.29
2019-05-29T06:04:08.507Z,15.39
2019-05-29T06:06:38.147Z,15.44
2019-05-29T06:09:08.372Z,15.29
2019-05-29T06:11:36.797Z,14.99
2019-05-29T06:14:05.481Z,14.91
2019-05-29T06:16:34.453Z,15.23
2019-05-29T06:19:02.920Z,15.00
2019-05-29T06:21:32.486Z,15.20
2019-05-29T06:24:01.033Z,15.42
2019-05-29T06:26:29.468Z,15.34
2019-05-29T06:28:57.963Z,15.30
2019-05-29T06:31:27.275Z,15.43
2019-05-29T06:33:56.055Z,15.11
2019-05-29T06:36:24.508Z,15.36
2019-05-29T06:38:52.963Z,15.45
2019-05-29T06:41:21.660Z,15.46
2019-05-29T06:43:50.113Z,15.64
2019-05-29T06:46:18.555Z,15.65
2019-05-29T06:48:58.994Z,15.46
2019-05-29T06:51:17.997Z,15.44
2019-05-29T06:53:46.388Z,15.41
2019-05-29T06:56:16.145Z,15.39
2019-05-29T06:58:45.102Z,15.49
2019-05-29T07:01:13.545Z,15.44
2019-05-29T07:03:41.961Z,15.49
2019-05-29T07:06:10.482Z,15.28
2019-05-29T07:08:44.204Z,15.44
2019-05-29T07:11:09.338Z,15.46
2019-05-29T07:13:40.996Z,15.35
2019-05-29T07:16:08.032Z,15.40
2019-05-29T07:18:36.666Z,15.18
2019-05-29T07:21:05.197Z,15.34
2019-05-29T07:23:33.594Z,15.17
2019-05-29T07:26:02.039Z,15.20
2019-05-29T07:28:30.442Z,15.13
2019-05-29T07:31:02.713Z,15.02
2019-05-29T07:33:29.012Z,14.98
2019-05-29T07:35:57.449Z,14.93
2019-05-29T07:38:25.856Z,14.99
2019-05-29T07:40:54.262Z,15.16
2019-05-29T07:43:22.689Z,15.35
2019-05-29T07:45:51.270Z,15.73
2019-05-29T07:48:19.692Z,15.90
2019-05-29T07:50:48.513Z,15.77
2019-05-29T07:53:17.192Z,15.79
2019-05-29T07:55:46.673Z,15.90
2019-05-29T07:58:15.220Z,16.17
2019-05-29T08:01:05.387Z,16.30
2019-05-29T08:03:14.194Z,16.35
2019-05-29T08:05:46.227Z,16.52
2019-05-29T08:08:13.103Z,16.53
2019-05-29T08:10:41.806Z,16.22
2019-05-29T08:13:10.373Z,16.27
2019-05-29T08:15:55.003Z,16.38
2019-05-29T08:18:09.104Z,16.43
2019-05-29T08:20:37.528Z,16.51
2019-05-29T08:23:05.992Z,16.83
2019-05-29T08:25:34.426Z,16.84
2019-05-29T08:28:03.006Z,16.89
2019-05-29T08:30:31.438Z,16.85
2019-05-29T08:32:59.857Z,16.83
2019-05-29T08:35:28.298Z,16.92
2019-05-29T08:37:56.703Z,16.83
2019-05-29T08:40:25.313Z,16.96
2019-05-29T08:42:53.817Z,17.13
2019-05-29T08:45:22.259Z,17.28
2019-05-29T08:47:51.891Z,17.37
2019-05-29T08:50:20.564Z,17.35
2019-05-29T08:52:50.062Z,17.71
2019-05-29T08:55:18.684Z,17.82
2019-05-29T08:57:48.284Z,17.92
2019-05-29T09:00:17.844Z,17.54
2019-05-29T09:02:46.714Z,17.30
2019-05-29T09:05:15.379Z,17.07
2019-05-29T09:07:45.882Z,17.15
2019-05-29T09:10:14.765Z,17.55
2019-05-29T09:12:46.996Z,17.66
2019-05-29T09:15:13.842Z,17.62
2019-05-29T09:17:42.434Z,17.78
2019-05-29T09:20:27.103Z,17.89
2019-05-29T09:22:41.779Z,18.11
2019-05-29T09:25:10.459Z,18.19
2019-05-29T09:27:38.872Z,18.36
2019-05-29T09:30:07.717Z,18.25
2019-05-29T09:32:49.648Z,18.54
2019-05-29T09:35:06.966Z,18.47
2019-05-29T09:37:35.381Z,18.35
2019-05-29T09:40:05.512Z,18.62
2019-05-29T09:42:34.085Z,18.86
2019-05-29T09:45:02.702Z,18.96
2019-05-29T09:47:31.209Z,19.13
2019-05-29T09:49:59.688Z,19.12
2019-05-29T09:52:30.621Z,18.89
2019-05-29T09:54:58.388Z,19.11
2019-05-29T09:57:26.750Z,18.90
2019-05-29T09:59:56.401Z,18.79
2019-05-29T10:02:25.331Z,18.87
2019-05-29T10:04:54.853Z,19.12
2019-05-29T10:07:23.916Z,19.27
2019-05-29T10:09:53.625Z,19.28
2019-05-29T10:12:22.779Z,19.54
2019-05-29T10:14:51.575Z,19.32
2019-05-29T10:17:20.068Z,19.00
2019-05-29T10:19:48.622Z,18.78
2019-05-29T10:22:17.216Z,18.51
2019-05-29T10:24:45.627Z,18.42
2019-05-29T10:27:14.096Z,18.29
2019-05-29T10:29:42.531Z,18.27
2019-05-29T10:32:10.927Z,18.29
2019-05-29T10:34:39.411Z,18.09
2019-05-29T10:37:07.872Z,18.12
2019-05-29T10:39:36.467Z,18.25
2019-05-29T10:42:04.948Z,18.24
2019-05-29T10:44:33.414Z,18.38
2019-05-29T10:47:01.932Z,18.47
2019-05-29T10:49:30.431Z,18.69
2019-05-29T10:52:13.805Z,18.49
2019-05-29T10:54:29.030Z,18.43
2019-05-29T10:56:57.433Z,18.32
2019-05-29T10:59:26.064Z,18.17
2019-05-29T11:01:55.533Z,18.14
2019-05-29T11:04:24.044Z,18.79
2019-05-29T11:06:54.632Z,19.45
2019-05-29T11:09:22.700Z,19.79
2019-05-29T11:11:53.055Z,19.75
2019-05-29T11:14:21.251Z,19.28
2019-05-29T11:16:50.859Z,18.86
2019-05-29T11:19:19.423Z,18.70
2019-05-29T11:21:48.187Z,19.57
2019-05-29T11:24:17.855Z,19.95
2019-05-29T11:26:46.432Z,20.28
2019-05-29T11:29:14.858Z,20.53
2019-05-29T11:31:43.260Z,20.58
2019-05-29T11:34:11.660Z,20.75
2019-05-29T11:36:40.103Z,20.04
2019-05-29T11:39:09.952Z,19.76
2019-05-29T11:41:38.465Z,19.80
2019-05-29T11:44:07.001Z,20.48
2019-05-29T11:46:35.489Z,20.40
2019-05-29T11:49:04.174Z,20.09
2019-05-29T11:51:32.660Z,19.69
2019-05-29T11:54:02.469Z,20.10
2019-05-29T11:56:31.145Z,20.45
2019-05-29T11:58:59.742Z,20.50
2019-05-29T12:01:28.226Z,20.89
2019-05-29T12:04:21.969Z,20.41
2019-05-29T12:06:26.870Z,19.89
2019-05-29T12:08:55.794Z,19.58
2019-05-29T12:11:24.310Z,19.47
2019-05-29T12:13:54.193Z,19.33
2019-05-29T12:16:22.876Z,19.32
2019-05-29T12:18:51.576Z,19.16
2019-05-29T12:21:20.192Z,18.94
2019-05-29T12:23:48.639Z,19.00
2019-05-29T12:26:22.746Z,19.06
2019-05-29T12:28:47.448Z,19.04
2019-05-29T12:31:15.945Z,19.14
2019-05-29T12:33:44.390Z,19.15
2019-05-29T12:36:12.989Z,19.16
2019-05-29T12:38:41.491Z,19.16
2019-05-29T12:41:09.932Z,19.04
2019-05-29T12:43:38.489Z,19.08
2019-05-29T12:46:06.924Z,19.04
2019-05-29T12:48:35.318Z,19.12
2019-05-29T12:51:04.143Z,19.10
2019-05-29T12:53:32.668Z,19.14
2019-05-29T12:56:02.465Z,19.11
2019-05-29T12:58:31.068Z,19.09
2019-05-29T13:01:00.719Z,18.97
2019-05-29T13:03:29.351Z,19.01
2019-05-29T13:05:58.239Z,19.02
2019-05-29T13:08:26.708Z,18.90
2019-05-29T13:10:56.205Z,19.05
2019-05-29T13:13:24.691Z,19.29
2019-05-29T13:15:54.611Z,19.27
2019-05-29T13:18:23.232Z,19.39
2019-05-29T13:20:51.653Z,19.52
2019-05-29T13:23:20.074Z,19.72
2019-05-29T13:25:48.557Z,19.75
2019-05-29T13:28:16.962Z,19.77
2019-05-29T13:30:45.625Z,19.90
2019-05-29T13:33:14.082Z,20.01
2019-05-29T13:35:42.494Z,20.06
2019-05-29T13:38:11.053Z,20.07
2019-05-29T13:40:39.487Z,19.66
2019-05-29T13:43:14.966Z,19.42
2019-05-29T13:45:38.045Z,19.31
2019-05-29T13:48:07.494Z,19.31
2019-05-29T13:50:36.110Z,19.11
2019-05-29T13:53:05.531Z,19.18
2019-05-29T13:55:34.042Z,19.20
2019-05-29T13:58:03.688Z,19.15
2019-05-29T14:00:34.770Z,19.29
2019-05-29T14:03:04.626Z,19.12
2019-05-29T14:05:33.197Z,18.94
2019-05-29T14:08:02.764Z,18.89
2019-05-29T14:10:31.385Z,18.97
2019-05-29T14:13:00.968Z,19.06
2019-05-29T14:15:29.681Z,19.13
2019-05-29T14:17:58.188Z,19.13
2019-05-29T14:20:26.718Z,19.07
2019-05-29T14:22:55.163Z,18.96
2019-05-29T14:25:23.631Z,19.00
2019-05-29T14:27:52.062Z,19.01
2019-05-29T14:30:20.928Z,18.85
2019-05-29T14:32:49.330Z,18.95
2019-05-29T14:35:18.380Z,18.88
2019-05-29T14:37:46.961Z,18.83
2019-05-29T14:40:17.214Z,18.78
2019-05-29T14:42:45.657Z,18.88
2019-05-29T14:45:14.726Z,19.01
2019-05-29T14:47:43.243Z,18.88
2019-05-29T14:50:13.562Z,18.79
2019-05-29T14:52:41.962Z,18.88
2019-05-29T14:55:17.407Z,18.96
2019-05-29T14:57:40.715Z,19.06
2019-05-29T15:00:20.598Z,19.03
2019-05-29T15:02:41.446Z,19.01
2019-05-29T15:05:12.129Z,18.93
2019-05-29T15:07:40.985Z,18.90
2019-05-29T15:10:22.675Z,18.70
2019-05-29T15:12:40.367Z,18.69
2019-05-29T15:15:11.415Z,18.61
2019-05-29T15:17:40.795Z,18.70
2019-05-29T15:20:11.718Z,18.71
2019-05-29T15:22:40.242Z,18.63
2019-05-29T15:25:19.495Z,18.64
2019-05-29T15:27:39.445Z,18.69
2019-05-29T15:30:11.359Z,18.58
2019-05-29T15:32:39.726Z,18.54
2019-05-29T15:35:13.769Z,18.51
2019-05-29T15:37:40.154Z,18.48
2019-05-29T15:40:10.871Z,18.60
2019-05-29T15:42:39.876Z,18.62
2019-05-29T15:45:09.895Z,18.57
2019-05-29T15:47:38.569Z,18.62
2019-05-29T15:50:09.266Z,18.49
2019-05-29T15:52:37.827Z,18.54
2019-05-29T15:55:21.222Z,18.48
2019-05-29T15:57:38.381Z,18.46
2019-05-29T16:00:09.224Z,18.61
2019-05-29T16:02:37.752Z,18.64
2019-05-29T16:05:08.742Z,18.59
2019-05-29T16:07:37.213Z,18.50
2019-05-29T16:10:13.041Z,18.46
2019-05-29T16:12:40.231Z,18.47
2019-05-29T16:15:11.261Z,18.51
2019-05-29T16:17:39.861Z,18.48
2019-05-29T16:20:12.376Z,18.44
2019-05-29T16:22:40.828Z,18.51
2019-05-29T16:25:10.814Z,18.53
2019-05-29T16:27:39.455Z,18.50
2019-05-29T16:30:08.993Z,18.46
2019-05-29T16:32:37.485Z,18.50
2019-05-29T16:35:08.927Z,18.58
2019-05-29T16:37:42.915Z,18.57
2019-05-29T16:40:18.169Z,18.64
2019-05-29T16:42:48.944Z,18.51
2019-05-29T16:45:26.447Z,18.50
2019-05-29T16:48:03.022Z,18.42
2019-05-29T16:50:53.289Z,18.35
2019-05-29T16:53:27.746Z,18.39
2019-05-29T16:56:14.767Z,18.36
2019-05-29T16:59:05.352Z,18.38
2019-05-29T17:01:48.382Z,18.41
2019-05-29T17:04:17.687Z,18.39
2019-05-29T17:06:46.184Z,18.41
2019-05-29T17:09:14.624Z,18.45
2019-05-29T17:11:43.005Z,18.46
2019-05-29T17:14:11.444Z,18.39
2019-05-29T17:16:40.044Z,18.38
2019-05-29T17:19:08.472Z,18.38
2019-05-29T17:21:36.872Z,18.46
2019-05-29T17:24:11.752Z,18.53
2019-05-29T17:30:10.879Z,18.50
2019-05-29T17:32:39.345Z,18.55
2019-05-29T17:35:08.754Z,18.61
2019-05-29T17:37:37.328Z,18.57
2019-05-29T17:40:07.489Z,18.55
2019-05-29T17:42:37.594Z,18.52
2019-05-29T17:45:12.857Z,18.49
2019-05-29T17:47:42.149Z,18.44
2019-05-29T17:50:11.070Z,18.46
2019-05-29T17:52:39.602Z,18.40
2019-05-29T17:55:12.202Z,18.39
2019-05-29T17:57:40.620Z,18.41
2019-05-29T18:00:12.387Z,18.42
2019-05-29T18:02:51.546Z,18.40
2019-05-29T18:05:11.340Z,18.48
2019-05-29T18:07:39.754Z,18.47
2019-05-29T18:10:08.558Z,18.43
2019-05-29T18:12:36.992Z,18.35
2019-05-29T18:15:10.061Z,18.41
2019-05-29T18:17:38.536Z,18.41
2019-05-29T18:20:08.861Z,18.33
2019-05-29T18:22:37.347Z,18.35
2019-05-29T18:25:07.624Z,18.27
2019-05-29T18:27:36.364Z,18.30
2019-05-29T18:30:07.250Z,18.24
2019-05-29T18:32:37.180Z,18.28
2019-05-29T18:35:33.153Z,18.21
2019-05-29T18:37:54.484Z,18.19
2019-05-29T18:40:24.214Z,18.15
2019-05-29T18:43:06.369Z,18.13
2019-05-29T18:45:34.822Z,18.09
2019-05-29T18:48:06.553Z,18.07
2019-05-29T18:50:35.076Z,17.96
2019-05-29T18:53:10.004Z,17.89
2019-05-29T18:55:42.466Z,17.87
2019-05-29T18:58:11.559Z,17.76
2019-05-29T19:00:40.037Z,17.72
2019-05-29T19:03:08.474Z,17.71
2019-05-29T19:05:51.096Z,17.71
2019-05-29T19:08:23.685Z,17.65
2019-05-29T19:10:53.690Z,17.61
2019-05-29T19:13:23.695Z,17.61
2019-05-29T19:16:03.547Z,17.60
2019-05-29T19:18:32.409Z,17.54
2019-05-29T19:21:00.865Z,17.46
2019-05-29T19:23:30.682Z,17.41
2019-05-29T19:25:59.214Z,17.50
2019-05-29T19:28:28.673Z,17.50
2019-05-29T19:30:57.238Z,17.33
2019-05-29T19:33:25.678Z,17.42
2019-05-29T19:35:54.106Z,17.42
2019-05-29T19:38:23.667Z,17.34
2019-05-29T19:40:52.215Z,17.29
2019-05-29T19:43:20.640Z,17.28
2019-05-29T19:45:49.088Z,17.24
2019-05-29T19:48:17.542Z,17.24
2019-05-29T19:50:45.957Z,17.24
2019-05-29T19:53:14.360Z,17.23
2019-05-29T19:55:42.785Z,17.10
2019-05-29T19:58:11.218Z,17.11
2019-05-29T20:00:39.647Z,17.12
2019-05-29T20:03:08.072Z,17.17
2019-05-29T20:05:37.013Z,17.15
2019-05-29T20:08:05.776Z,17.09
2019-05-29T20:10:35.451Z,16.99
2019-05-29T20:13:03.949Z,16.93
2019-05-29T20:15:32.388Z,16.99
2019-05-29T20:18:00.804Z,16.91
2019-05-29T20:20:30.342Z,16.85
2019-05-29T20:22:58.858Z,16.88
2019-05-29T20:25:27.272Z,16.85
2019-05-29T20:28:05.974Z,16.94
2019-05-29T20:30:25.951Z,16.78
2019-05-29T20:32:54.473Z,16.79
2019-05-29T20:35:22.898Z,16.81
2019-05-29T20:37:51.337Z,16.76
2019-05-29T20:40:19.938Z,16.85
2019-05-29T20:42:48.412Z,16.80
2019-05-29T20:45:16.976Z,16.73
2019-05-29T20:47:45.400Z,16.71
2019-05-29T20:50:14.073Z,16.68
2019-05-29T20:52:42.507Z,16.64
2019-05-29T20:55:11.847Z,16.73
2019-05-29T20:57:40.251Z,16.63
2019-05-29T21:00:10.532Z,16.61
2019-05-29T21:02:40.293Z,16.64
2019-05-29T21:05:09.191Z,16.60
2019-05-29T21:07:38.760Z,16.77
2019-05-29T21:10:08.044Z,16.97
2019-05-29T21:12:37.519Z,16.92
2019-05-29T21:15:08.158Z,16.69
2019-05-29T21:17:37.890Z,16.75
2019-05-29T21:20:08.778Z,16.91
2019-05-29T21:22:38.481Z,16.84
2019-05-29T21:25:12.260Z,16.43
2019-05-29T21:27:41.929Z,16.27
2019-05-29T21:30:09.551Z,16.17
2019-05-29T21:32:38.101Z,16.17
2019-05-29T21:35:09.758Z,16.47
2019-05-29T21:37:38.349Z,16.37
2019-05-29T21:40:07.266Z,16.13
2019-05-29T21:42:36.531Z,16.06
2019-05-29T21:45:06.693Z,15.90
2019-05-29T21:47:35.085Z,15.83
2019-05-29T21:50:05.061Z,16.02
2019-05-29T21:52:33.514Z,15.98
2019-05-29T21:55:01.988Z,16.12
2019-05-29T21:57:30.531Z,15.80
2019-05-29T21:59:59.054Z,15.73
2019-05-29T22:02:27.492Z,16.12
2019-05-29T22:04:56.030Z,16.26
2019-05-29T22:07:24.504Z,16.34
2019-05-29T22:09:54.101Z,16.21
2019-05-29T22:12:22.933Z,16.30
2019-05-29T22:14:52.889Z,16.03
2019-05-29T22:17:21.637Z,16.09
2019-05-29T22:19:50.771Z,15.99
2019-05-29T22:22:19.310Z,15.93
2019-05-29T22:24:47.710Z,15.94
2019-05-29T22:27:16.213Z,16.08
2019-05-29T22:29:44.618Z,16.17
2019-05-29T22:32:13.040Z,15.97
2019-05-29T22:34:41.504Z,15.89
2019-05-29T22:37:09.912Z,15.58
2019-05-29T22:39:38.454Z,15.72
2019-05-29T22:42:06.908Z,15.64
2019-05-29T22:44:35.300Z,15.68
2019-05-29T22:47:03.834Z,15.89
2019-05-29T22:49:32.345Z,16.00
2019-05-29T22:52:02.112Z,15.96
2019-05-29T22:54:30.708Z,15.68
2019-05-29T22:57:00.033Z,15.59
2019-05-29T22:59:31.985Z,15.74
2019-05-29T23:01:58.653Z,15.78
2019-05-29T23:04:27.086Z,15.46
2019-05-29T23:06:56.341Z,15.32
2019-05-29T23:09:24.802Z,15.51
2019-05-29T23:11:54.159Z,15.61
2019-05-29T23:14:22.656Z,15.78
2019-05-29T23:16:52.354Z,15.29
2019-05-29T23:19:20.762Z,15.55
2019-05-29T23:21:49.263Z,15.45
2019-05-29T23:24:17.682Z,15.53
2019-05-29T23:26:46.290Z,15.36
2019-05-29T23:29:14.804Z,15.06
2019-05-29T23:31:43.230Z,15.10
2019-05-29T23:34:11.647Z,15.33
2019-05-29T23:36:40.146Z,15.41
2019-05-29T23:39:08.572Z,15.25
2019-05-29T23:41:36.991Z,15.18
2019-05-29T23:44:05.502Z,15.19
2019-05-29T23:46:33.920Z,14.92
2019-05-29T23:49:03.854Z,15.10
2019-05-29T23:51:32.570Z,15.28
2019-05-29T23:54:01.886Z,15.05
2019-05-29T23:56:30.292Z,14.83
2019-05-29T23:58:59.819Z,14.82
